Terminal Aerodrome Forecast
Issued by NWS

Home | Current Version | Previous Version | Text Only | Print | Product List | Glossary On
Versions: 1 2 3 4 5 6 7 8 9 10 11 12 13 14 15 16 17 18 19
000
FTUS46 KSGX 201700
TAFCRQ
TAF
KCRQ 201726Z 2018/2118 VRB05KT P6SM SCT035 SCT070
     FM201900 24008KT P6SM FEW035 SCT070
     FM210000 VRB05KT P6SM FEW018
     FM210300 VRB04KT P6SM BKN017
     FM211600 VRB04KT P6SM SCT019=

USA.gov is the U.S. government's official web portal to all federal, state and local government web resources and services.